createdAt,value
2022-12-01T03:58:23.426Z,3.44
2022-12-01T04:00:53.258Z,3.42
2022-12-01T04:03:22.946Z,3.38
2022-12-01T04:05:49.483Z,3.56
2022-12-01T04:08:15.947Z,3.18
2022-12-01T04:10:42.643Z,3.31
2022-12-01T04:13:16.579Z,3.60
2022-12-01T04:15:43.628Z,3.60
2022-12-01T04:18:10.294Z,3.51
2022-12-01T04:20:37.111Z,3.59
2022-12-01T04:23:03.623Z,3.77
2022-12-01T04:25:30.133Z,3.72
2022-12-01T04:27:56.610Z,3.82
2022-12-01T04:30:23.254Z,3.95
2022-12-01T04:32:49.729Z,4.09
2022-12-01T04:35:16.247Z,4.03
2022-12-01T04:37:42.795Z,3.97
2022-12-01T04:40:09.777Z,3.82
2022-12-01T04:42:36.642Z,3.74
2022-12-01T04:45:03.547Z,3.45
2022-12-01T04:47:30.074Z,3.50
2022-12-01T04:49:56.539Z,3.14
2022-12-01T04:52:23.073Z,3.24
2022-12-01T04:54:49.595Z,3.21
2022-12-01T04:57:16.126Z,3.30
2022-12-01T04:59:42.608Z,3.43
2022-12-01T05:02:09.180Z,3.44
2022-12-01T05:04:38.582Z,3.41
2022-12-01T05:07:05.259Z,3.49
2022-12-01T05:09:31.793Z,3.52
2022-12-01T05:11:58.306Z,3.44
2022-12-01T05:14:24.798Z,3.33
2022-12-01T05:16:51.373Z,3.47
2022-12-01T05:19:36.918Z,3.40
2022-12-01T05:22:03.403Z,3.51
2022-12-01T05:24:29.965Z,3.60
2022-12-01T05:26:56.450Z,3.60
2022-12-01T05:29:23.103Z,3.18
2022-12-01T05:31:49.654Z,3.36
2022-12-01T05:34:16.510Z,3.23
2022-12-01T05:36:43.206Z,3.40
2022-12-01T05:39:09.693Z,3.35
2022-12-01T05:41:36.197Z,3.09
2022-12-01T05:44:02.793Z,3.25
2022-12-01T05:46:29.312Z,3.26
2022-12-01T05:48:55.849Z,3.12
2022-12-01T05:51:22.347Z,3.43
2022-12-01T05:53:49.001Z,3.43
2022-12-01T05:56:15.522Z,3.11
2022-12-01T05:58:42.083Z,3.08
2022-12-01T06:01:08.659Z,3.29
2022-12-01T06:03:35.331Z,3.28
2022-12-01T06:06:01.948Z,3.16
2022-12-01T06:08:28.463Z,3.53
2022-12-01T06:10:54.966Z,3.66
2022-12-01T06:13:21.498Z,3.76
2022-12-01T06:15:57.374Z,3.57
2022-12-01T06:18:24.846Z,3.69
2022-12-01T06:20:51.368Z,3.43
2022-12-01T06:23:18.143Z,3.32
2022-12-01T06:25:44.753Z,3.20
2022-12-01T06:28:11.231Z,3.32
2022-12-01T06:30:37.724Z,3.70
2022-12-01T06:33:04.336Z,3.67
2022-12-01T06:35:30.787Z,3.64
2022-12-01T06:37:57.359Z,3.74
2022-12-01T06:40:23.880Z,3.66
2022-12-01T06:42:50.425Z,3.39
2022-12-01T06:45:17.014Z,3.82
2022-12-01T06:47:43.475Z,3.69
2022-12-01T06:50:11.769Z,3.59
2022-12-01T06:52:38.331Z,3.33
2022-12-01T06:55:05.827Z,3.64
2022-12-01T06:57:32.597Z,3.57
2022-12-01T06:59:59.404Z,3.79
2022-12-01T07:02:26.366Z,3.40
2022-12-01T07:04:53.052Z,3.53
2022-12-01T07:07:19.686Z,3.51
2022-12-01T07:09:46.711Z,3.48
2022-12-01T07:12:13.335Z,3.62
2022-12-01T07:14:42.321Z,3.63
2022-12-01T07:17:09.854Z,3.69
2022-12-01T07:19:36.424Z,3.34
2022-12-01T07:22:03.097Z,3.37
2022-12-01T07:24:30.352Z,3.65
2022-12-01T07:26:57.097Z,3.69
2022-12-01T07:29:23.637Z,3.38
2022-12-01T07:31:50.235Z,3.65
2022-12-01T07:34:16.728Z,3.86
2022-12-01T07:36:43.206Z,3.49
2022-12-01T07:39:09.772Z,3.74
2022-12-01T07:41:36.512Z,3.75
2022-12-01T07:44:03.606Z,4.02
2022-12-01T07:46:30.434Z,4.17
2022-12-01T07:48:57.519Z,4.17
2022-12-01T07:51:25.195Z,4.45
2022-12-01T07:53:53.554Z,4.31
2022-12-01T07:56:21.263Z,4.20
2022-12-01T07:58:47.838Z,4.28
2022-12-01T08:01:17.600Z,4.41
2022-12-01T08:03:44.501Z,4.45
2022-12-01T08:06:11.877Z,4.54
2022-12-01T08:08:39.809Z,4.67
2022-12-01T08:11:11.509Z,4.75
2022-12-01T08:13:38.972Z,4.83
2022-12-01T08:16:07.409Z,4.76
2022-12-01T08:18:35.493Z,4.63
2022-12-01T08:21:02.280Z,4.89
2022-12-01T08:23:28.861Z,5.03
2022-12-01T08:25:55.505Z,5.18
2022-12-01T08:28:22.183Z,4.99
2022-12-01T08:30:48.804Z,4.44
2022-12-01T08:33:15.427Z,4.63
2022-12-01T08:35:41.943Z,4.69
2022-12-01T08:38:09.434Z,5.33
2022-12-01T08:40:36.104Z,4.95
2022-12-01T08:43:02.628Z,5.24
2022-12-01T08:45:29.245Z,5.01
2022-12-01T08:47:58.782Z,5.55
2022-12-01T08:50:27.149Z,5.53
2022-12-01T08:52:54.079Z,5.79
2022-12-01T08:55:22.158Z,6.24
2022-12-01T08:57:48.755Z,6.19
2022-12-01T09:00:16.166Z,6.18
2022-12-01T09:02:42.882Z,6.28
2022-12-01T09:05:10.428Z,6.34
2022-12-01T09:07:37.037Z,6.03
2022-12-01T09:10:04.717Z,6.27
2022-12-01T09:12:31.308Z,6.50
2022-12-01T09:14:57.857Z,6.59
2022-12-01T09:17:24.458Z,6.15
2022-12-01T09:19:51.399Z,6.74
2022-12-01T09:22:18.224Z,6.53
2022-12-01T09:24:45.070Z,6.79
2022-12-01T09:27:11.680Z,6.82
2022-12-01T09:29:38.301Z,6.92
2022-12-01T09:32:05.024Z,6.56
2022-12-01T09:34:31.514Z,7.13
2022-12-01T09:36:58.576Z,7.53
2022-12-01T09:39:25.728Z,7.49
2022-12-01T09:41:59.729Z,7.69
2022-12-01T09:44:47.584Z,7.68
2022-12-01T09:47:26.098Z,7.31
2022-12-01T09:50:25.311Z,7.46
2022-12-01T09:52:57.969Z,7.64
2022-12-01T09:55:25.729Z,7.78
2022-12-01T09:57:55.366Z,7.49
2022-12-01T10:00:28.906Z,7.37
2022-12-01T10:03:33.198Z,7.63
2022-12-01T10:09:30.206Z,7.90
2022-12-01T10:12:34.759Z,8.20
2022-12-01T10:15:13.252Z,8.57
2022-12-01T10:17:46.376Z,7.75
2022-12-01T10:20:26.594Z,7.68
2022-12-01T10:23:29.322Z,7.83
2022-12-01T10:26:09.902Z,8.10
2022-12-01T10:28:50.085Z,8.14
2022-12-01T10:31:20.161Z,8.73
2022-12-01T10:33:54.568Z,8.91
2022-12-01T10:36:22.306Z,9.20
2022-12-01T10:38:48.834Z,8.87
2022-12-01T10:41:18.662Z,8.31
2022-12-01T10:43:50.821Z,7.92
2022-12-01T10:46:28.339Z,7.87
2022-12-01T10:48:59.646Z,7.52
2022-12-01T10:51:27.997Z,7.55
2022-12-01T10:54:07.457Z,7.61
2022-12-01T10:56:34.409Z,7.53
2022-12-01T10:59:16.723Z,7.47
2022-12-01T11:01:48.196Z,7.30
2022-12-01T11:04:46.405Z,7.25
2022-12-01T11:07:29.610Z,7.70
2022-12-01T11:10:17.091Z,7.83
2022-12-01T11:12:46.836Z,8.42
2022-12-01T11:15:26.478Z,9.28
2022-12-01T11:18:07.796Z,8.87
2022-12-01T11:20:37.024Z,9.35
2022-12-01T11:23:12.478Z,8.95
2022-12-01T11:25:39.287Z,9.82
2022-12-01T11:28:06.088Z,9.75
2022-12-01T11:30:33.483Z,10.05
2022-12-01T11:33:03.385Z,9.27
2022-12-01T11:35:34.755Z,9.65
2022-12-01T11:38:28.767Z,10.08
2022-12-01T11:40:54.341Z,9.62
2022-12-01T11:43:23.429Z,10.58
2022-12-01T11:45:50.342Z,10.50
2022-12-01T11:48:25.693Z,10.92
2022-12-01T11:51:06.673Z,10.37
2022-12-01T11:53:38.712Z,10.94
2022-12-01T11:56:23.765Z,10.63
2022-12-01T11:58:58.996Z,10.88
2022-12-01T12:01:39.111Z,10.57
2022-12-01T12:04:17.869Z,10.35
2022-12-01T12:07:03.175Z,10.93
2022-12-01T12:10:02.166Z,12.33
2022-12-01T12:12:43.843Z,12.67
2022-12-01T12:15:13.149Z,11.22
2022-12-01T12:17:56.498Z,11.59
2022-12-01T12:20:44.555Z,11.85
2022-12-01T12:23:37.197Z,11.65
2022-12-01T12:26:15.797Z,11.55
2022-12-01T12:29:01.617Z,11.92
2022-12-01T12:31:49.259Z,12.08
2022-12-01T12:34:23.577Z,12.54
2022-12-01T12:37:16.019Z,11.25
2022-12-01T12:40:09.017Z,9.89
2022-12-01T12:43:38.718Z,9.72
2022-12-01T12:46:15.675Z,9.26
2022-12-01T12:49:21.434Z,9.09
2022-12-01T12:51:55.997Z,9.19
2022-12-01T12:54:33.196Z,9.58
2022-12-01T12:57:06.434Z,9.82
2022-12-01T12:59:53.992Z,9.90
2022-12-01T13:02:38.026Z,9.30
2022-12-01T13:05:23.053Z,8.69
2022-12-01T13:08:12.670Z,8.89
2022-12-01T13:11:06.938Z,8.78
2022-12-01T13:13:48.123Z,8.74
2022-12-01T13:16:24.346Z,8.89
2022-12-01T13:18:57.357Z,8.48
2022-12-01T13:21:24.110Z,8.61
2022-12-01T13:23:52.538Z,8.68
2022-12-01T13:26:21.401Z,8.58
2022-12-01T13:28:51.655Z,8.63
2022-12-01T13:31:19.577Z,8.32
2022-12-01T13:34:06.438Z,8.00
2022-12-01T13:36:49.199Z,8.04
2022-12-01T13:39:20.364Z,7.88
2022-12-01T13:41:58.512Z,7.56
2022-12-01T13:44:29.994Z,7.41
2022-12-01T13:47:01.026Z,7.51
2022-12-01T13:49:40.628Z,7.61
2022-12-01T13:52:22.360Z,7.51
2022-12-01T13:55:25.152Z,7.76
2022-12-01T13:57:57.570Z,7.89
2022-12-01T14:00:28.854Z,7.88
2022-12-01T14:03:15.716Z,7.90
2022-12-01T14:05:42.255Z,8.02
2022-12-01T14:08:27.436Z,7.77
2022-12-01T14:11:01.815Z,7.69
2022-12-01T14:13:31.640Z,7.53
2022-12-01T14:16:01.057Z,7.28
2022-12-01T14:18:35.683Z,7.05
2022-12-01T14:21:05.836Z,7.00
2022-12-01T14:23:36.079Z,6.86
2022-12-01T14:26:13.214Z,6.51
2022-12-01T14:29:01.186Z,6.34
2022-12-01T14:31:33.955Z,6.21
2022-12-01T14:34:18.741Z,6.09
2022-12-01T14:36:49.716Z,6.10
2022-12-01T14:39:23.072Z,5.89
2022-12-01T14:41:58.176Z,6.18
2022-12-01T14:44:47.612Z,6.22
2022-12-01T14:47:41.853Z,6.33
2022-12-01T14:50:18.112Z,6.34
2022-12-01T14:52:48.994Z,6.47
2022-12-01T14:55:25.045Z,6.57
2022-12-01T14:58:00.036Z,6.44
2022-12-01T15:00:26.787Z,6.38
2022-12-01T15:03:03.245Z,6.41
2022-12-01T15:05:32.276Z,6.41
2022-12-01T15:08:33.750Z,6.28
2022-12-01T15:10:54.285Z,6.29
2022-12-01T15:13:23.394Z,6.14
2022-12-01T15:15:53.031Z,6.20
2022-12-01T15:18:27.290Z,6.12
2022-12-01T15:21:01.506Z,5.87
2022-12-01T15:23:28.094Z,6.01
2022-12-01T15:25:54.970Z,5.82
2022-12-01T15:28:30.310Z,5.79
2022-12-01T15:30:57.918Z,6.07
2022-12-01T15:33:35.378Z,6.25
2022-12-01T15:36:04.280Z,6.36
2022-12-01T15:38:37.373Z,6.43
2022-12-01T15:44:00.642Z,6.44
2022-12-01T15:46:32.583Z,6.42
2022-12-01T15:49:14.928Z,6.40
2022-12-01T15:51:41.473Z,6.26
2022-12-01T15:54:19.243Z,5.95
2022-12-01T15:56:50.081Z,5.87
2022-12-01T15:59:36.787Z,5.98
2022-12-01T16:02:28.400Z,6.10
2022-12-01T16:05:16.243Z,6.04
2022-12-01T16:08:12.135Z,5.96
2022-12-01T16:10:33.599Z,6.05
2022-12-01T16:13:37.189Z,5.97
2022-12-01T16:16:31.530Z,5.81
2022-12-01T16:19:07.518Z,5.97
2022-12-01T16:21:43.451Z,5.67
2022-12-01T16:24:15.969Z,5.82
2022-12-01T16:26:58.728Z,5.91
2022-12-01T16:29:27.385Z,5.95
2022-12-01T16:32:19.235Z,5.58
2022-12-01T16:34:46.757Z,5.70
2022-12-01T16:37:14.866Z,5.73
2022-12-01T16:39:42.083Z,5.90
2022-12-01T16:42:16.432Z,5.78
2022-12-01T16:44:45.551Z,5.84
2022-12-01T16:47:14.827Z,5.83
2022-12-01T16:49:42.222Z,5.75
2022-12-01T16:52:43.274Z,5.88
2022-12-01T16:55:51.115Z,5.92
2022-12-01T16:58:22.147Z,5.49
2022-12-01T17:00:54.827Z,5.67
2022-12-01T17:03:28.270Z,6.00
2022-12-01T17:06:23.063Z,5.96
2022-12-01T17:08:51.129Z,6.03
2022-12-01T17:11:25.286Z,5.84
2022-12-01T17:14:07.458Z,5.96
2022-12-01T17:16:44.153Z,5.80
2022-12-01T17:19:15.403Z,5.57
2022-12-01T17:21:48.688Z,5.89
2022-12-01T17:24:29.527Z,5.72
2022-12-01T17:26:56.490Z,5.81
2022-12-01T17:29:23.073Z,6.17
2022-12-01T17:31:49.722Z,5.99
2022-12-01T17:34:16.289Z,5.81
2022-12-01T17:36:42.987Z,5.73
2022-12-01T17:39:09.690Z,5.62
2022-12-01T17:41:36.331Z,5.79
2022-12-01T17:44:04.301Z,5.68
2022-12-01T17:46:31.738Z,5.57
2022-12-01T17:48:59.374Z,5.50
2022-12-01T17:51:26.271Z,5.67
2022-12-01T17:53:54.060Z,5.74
2022-12-01T17:56:20.637Z,5.79
2022-12-01T17:58:49.314Z,5.74
2022-12-01T18:01:18.834Z,5.82
2022-12-01T18:04:04.585Z,5.80
2022-12-01T18:06:54.332Z,5.62
2022-12-01T18:09:41.586Z,5.76
2022-12-01T18:12:28.541Z,5.67
2022-12-01T18:15:17.319Z,5.80
2022-12-01T18:18:05.264Z,5.57
2022-12-01T18:20:52.188Z,5.66
2022-12-01T18:23:39.259Z,5.56
2022-12-01T18:26:28.103Z,5.70
2022-12-01T18:29:25.937Z,5.59
2022-12-01T18:32:13.226Z,5.55
2022-12-01T18:35:00.117Z,5.45
2022-12-01T18:37:47.013Z,5.41
2022-12-01T18:40:36.698Z,5.38
2022-12-01T18:43:23.527Z,5.31
2022-12-01T18:46:12.697Z,5.46
2022-12-01T18:49:03.123Z,5.61
2022-12-01T18:51:50.169Z,5.46
2022-12-01T18:54:37.124Z,5.34
2022-12-01T18:57:23.971Z,5.30
2022-12-01T19:00:11.533Z,5.42
2022-12-01T19:02:58.727Z,5.34
2022-12-01T19:05:45.904Z,5.28
2022-12-01T19:08:32.769Z,5.54
2022-12-01T19:11:19.998Z,5.36
2022-12-01T19:14:08.321Z,5.52
2022-12-01T19:16:55.969Z,5.44
2022-12-01T19:19:42.814Z,5.48
2022-12-01T19:22:29.651Z,5.46
2022-12-01T19:25:16.652Z,5.35
2022-12-01T19:28:03.592Z,5.39
2022-12-01T19:30:50.921Z,5.09
2022-12-01T19:33:38.117Z,5.16
2022-12-01T19:36:27.221Z,5.23
2022-12-01T19:39:14.020Z,5.07
2022-12-01T19:42:01.228Z,5.10
2022-12-01T19:44:48.198Z,5.17
2022-12-01T19:47:35.423Z,5.36
2022-12-01T19:50:22.189Z,5.34
2022-12-01T19:53:09.180Z,5.30
2022-12-01T19:56:04.093Z,5.33
2022-12-01T19:58:52.094Z,5.43
2022-12-01T20:01:40.000Z,5.35
2022-12-01T20:04:26.869Z,5.47
2022-12-01T20:07:13.764Z,5.78
2022-12-01T20:10:00.762Z,5.34
2022-12-01T20:12:47.797Z,5.57
2022-12-01T20:15:34.677Z,5.46
2022-12-01T20:18:21.493Z,5.30
2022-12-01T20:21:15.847Z,5.44
2022-12-01T20:24:05.632Z,5.26
2022-12-01T20:26:54.056Z,5.53
2022-12-01T20:29:40.985Z,5.42
2022-12-01T20:32:28.103Z,5.40
2022-12-01T20:35:15.572Z,5.32
2022-12-01T20:38:02.432Z,5.19
2022-12-01T20:40:51.415Z,5.24
2022-12-01T20:43:38.631Z,5.28
2022-12-01T20:46:25.669Z,5.36
2022-12-01T20:49:14.945Z,5.26
2022-12-01T20:52:01.843Z,5.20
2022-12-01T20:54:49.100Z,5.18
2022-12-01T20:57:36.167Z,5.11
2022-12-01T21:00:23.422Z,5.27
